sensor_id;sensor_type;location;lat;lon;timestamp;temperature;humidity
27978;DHT22;15314;49.248;6.968;2024-03-29T00:00:05;10.00;90.40
27978;DHT22;15314;49.248;6.968;2024-03-29T00:01:06;10.00;90.40
27978;DHT22;15314;49.248;6.968;2024-03-29T00:02:07;10.00;90.50
27978;DHT22;15314;49.248;6.968;2024-03-29T00:03:09;10.00;90.50
27978;DHT22;15314;49.248;6.968;2024-03-29T00:04:10;10.00;90.50
27978;DHT22;15314;49.248;6.968;2024-03-29T00:05:10;10.00;90.70
27978;DHT22;15314;49.248;6.968;2024-03-29T00:06:11;10.10;90.60
27978;DHT22;15314;49.248;6.968;2024-03-29T00:07:12;10.10;90.70
27978;DHT22;15314;49.248;6.968;2024-03-29T00:08:12;10.20;90.50
27978;DHT22;15314;49.248;6.968;2024-03-29T00:09:13;10.10;90.40
27978;DHT22;15314;49.248;6.968;2024-03-29T00:10:13;10.00;90.40
27978;DHT22;15314;49.248;6.968;2024-03-29T00:11:14;10.00;90.60
27978;DHT22;15314;49.248;6.968;2024-03-29T00:12:15;10.00;90.30
27978;DHT22;15314;49.248;6.968;2024-03-29T00:13:15;10.10;90.30
27978;DHT22;15314;49.248;6.968;2024-03-29T00:14:16;10.10;90.30
27978;DHT22;15314;49.248;6.968;2024-03-29T00:15:17;10.20;90.30
27978;DHT22;15314;49.248;6.968;2024-03-29T00:16:18;10.10;90.30
27978;DHT22;15314;49.248;6.968;2024-03-29T00:17:18;10.10;90.30
27978;DHT22;15314;49.248;6.968;2024-03-29T00:18:19;10.10;90.10
27978;DHT22;15314;49.248;6.968;2024-03-29T00:19:20;10.10;90.20
27978;DHT22;15314;49.248;6.968;2024-03-29T00:20:20;10.10;90.10
27978;DHT22;15314;49.248;6.968;2024-03-29T00:21:21;10.20;90.00
27978;DHT22;15314;49.248;6.968;2024-03-29T00:22:22;10.20;90.10
27978;DHT22;15314;49.248;6.968;2024-03-29T00:23:23;10.20;90.10
27978;DHT22;15314;49.248;6.968;2024-03-29T00:24:23;10.20;90.10
27978;DHT22;15314;49.248;6.968;2024-03-29T00:25:24;10.10;90.10
27978;DHT22;15314;49.248;6.968;2024-03-29T00:26:24;10.30;90.20
27978;DHT22;15314;49.248;6.968;2024-03-29T00:27:25;10.10;90.20
27978;DHT22;15314;49.248;6.968;2024-03-29T00:28:28;10.20;90.30
27978;DHT22;15314;49.248;6.968;2024-03-29T00:29:29;10.10;90.20
27978;DHT22;15314;49.248;6.968;2024-03-29T00:30:30;10.20;90.30
27978;DHT22;15314;49.248;6.968;2024-03-29T00:31:30;10.20;90.20
27978;DHT22;15314;49.248;6.968;2024-03-29T00:32:31;10.20;90.20
27978;DHT22;15314;49.248;6.968;2024-03-29T00:33:32;10.20;90.10
27978;DHT22;15314;49.248;6.968;2024-03-29T00:34:32;10.20;90.10
27978;DHT22;15314;49.248;6.968;2024-03-29T00:35:33;10.30;90.40
27978;DHT22;15314;49.248;6.968;2024-03-29T00:36:33;10.30;90.10
27978;DHT22;15314;49.248;6.968;2024-03-29T00:37:34;10.30;90.00
27978;DHT22;15314;49.248;6.968;2024-03-29T00:38:35;10.30;89.90
27978;DHT22;15314;49.248;6.968;2024-03-29T00:39:35;10.30;90.00
27978;DHT22;15314;49.248;6.968;2024-03-29T00:40:36;10.40;90.00
27978;DHT22;15314;49.248;6.968;2024-03-29T00:41:37;10.40;89.80
27978;DHT22;15314;49.248;6.968;2024-03-29T00:42:37;10.50;89.90
27978;DHT22;15314;49.248;6.968;2024-03-29T00:43:38;10.60;89.70
27978;DHT22;15314;49.248;6.968;2024-03-29T00:44:39;10.70;89.50
27978;DHT22;15314;49.248;6.968;2024-03-29T00:45:40;10.50;89.40
27978;DHT22;15314;49.248;6.968;2024-03-29T00:46:41;10.60;89.40
27978;DHT22;15314;49.248;6.968;2024-03-29T00:47:42;10.70;89.50
27978;DHT22;15314;49.248;6.968;2024-03-29T00:48:42;10.70;89.20
27978;DHT22;15314;49.248;6.968;2024-03-29T00:49:45;10.60;89.10
27978;DHT22;15314;49.248;6.968;2024-03-29T00:50:46;10.60;89.10
27978;DHT22;15314;49.248;6.968;2024-03-29T00:51:46;10.60;89.10
27978;DHT22;15314;49.248;6.968;2024-03-29T00:52:47;10.60;89.10
27978;DHT22;15314;49.248;6.968;2024-03-29T00:53:48;10.70;89.40
27978;DHT22;15314;49.248;6.968;2024-03-29T00:54:49;10.70;89.40
27978;DHT22;15314;49.248;6.968;2024-03-29T00:55:50;10.70;89.40
27978;DHT22;15314;49.248;6.968;2024-03-29T00:56:51;10.70;89.40
27978;DHT22;15314;49.248;6.968;2024-03-29T00:57:52;10.60;89.60
27978;DHT22;15314;49.248;6.968;2024-03-29T00:58:53;10.70;89.60
27978;DHT22;15314;49.248;6.968;2024-03-29T00:59:54;10.70;89.50
27978;DHT22;15314;49.248;6.968;2024-03-29T01:00:54;10.70;89.60
27978;DHT22;15314;49.248;6.968;2024-03-29T01:01:55;10.70;89.50
27978;DHT22;15314;49.248;6.968;2024-03-29T01:02:55;10.70;89.50
27978;DHT22;15314;49.248;6.968;2024-03-29T01:03:58;10.90;89.50
27978;DHT22;15314;49.248;6.968;2024-03-29T01:04:58;10.90;89.30
27978;DHT22;15314;49.248;6.968;2024-03-29T01:05:59;10.80;89.50
27978;DHT22;15314;49.248;6.968;2024-03-29T01:06:59;10.80;89.50
27978;DHT22;15314;49.248;6.968;2024-03-29T01:08:00;10.80;89.40
27978;DHT22;15314;49.248;6.968;2024-03-29T01:09:01;11.00;89.30
27978;DHT22;15314;49.248;6.968;2024-03-29T01:10:02;10.90;89.10
27978;DHT22;15314;49.248;6.968;2024-03-29T01:11:03;11.00;89.00
27978;DHT22;15314;49.248;6.968;2024-03-29T01:12:04;11.00;88.70
27978;DHT22;15314;49.248;6.968;2024-03-29T01:13:05;11.00;88.80
27978;DHT22;15314;49.248;6.968;2024-03-29T01:14:06;11.10;88.90
27978;DHT22;15314;49.248;6.968;2024-03-29T01:15:07;11.10;88.70
27978;DHT22;15314;49.248;6.968;2024-03-29T01:16:08;11.10;88.70
27978;DHT22;15314;49.248;6.968;2024-03-29T01:17:08;11.10;89.50
27978;DHT22;15314;49.248;6.968;2024-03-29T01:18:09;11.20;89.90
27978;DHT22;15314;49.248;6.968;2024-03-29T01:19:11;11.20;88.70
27978;DHT22;15314;49.248;6.968;2024-03-29T01:20:11;11.20;88.80
27978;DHT22;15314;49.248;6.968;2024-03-29T01:21:13;11.20;89.90
27978;DHT22;15314;49.248;6.968;2024-03-29T01:22:13;11.10;90.40
27978;DHT22;15314;49.248;6.968;2024-03-29T01:23:14;11.20;90.90
27978;DHT22;15314;49.248;6.968;2024-03-29T01:24:15;11.20;91.30
27978;DHT22;15314;49.248;6.968;2024-03-29T01:25:15;11.10;91.50
27978;DHT22;15314;49.248;6.968;2024-03-29T01:26:18;10.90;91.50
27978;DHT22;15314;49.248;6.968;2024-03-29T01:27:19;10.90;91.70
27978;DHT22;15314;49.248;6.968;2024-03-29T01:28:19;10.70;91.60
27978;DHT22;15314;49.248;6.968;2024-03-29T01:29:20;10.60;91.80
27978;DHT22;15314;49.248;6.968;2024-03-29T01:30:20;10.50;92.00
27978;DHT22;15314;49.248;6.968;2024-03-29T01:31:23;10.50;92.40
27978;DHT22;15314;49.248;6.968;2024-03-29T01:32:23;10.40;92.00
27978;DHT22;15314;49.248;6.968;2024-03-29T01:33:25;10.40;92.20
27978;DHT22;15314;49.248;6.968;2024-03-29T01:34:25;10.30;92.40
27978;DHT22;15314;49.248;6.968;2024-03-29T01:35:26;10.30;92.30
27978;DHT22;15314;49.248;6.968;2024-03-29T01:36:27;10.40;92.30
27978;DHT22;15314;49.248;6.968;2024-03-29T01:37:27;10.40;92.70
27978;DHT22;15314;49.248;6.968;2024-03-29T01:38:28;10.40;92.60
27978;DHT22;15314;49.248;6.968;2024-03-29T01:39:28;10.50;92.40
27978;DHT22;15314;49.248;6.968;2024-03-29T01:40:31;10.40;92.40
27978;DHT22;15314;49.248;6.968;2024-03-29T01:41:32;10.40;92.10
27978;DHT22;15314;49.248;6.968;2024-03-29T01:42:32;10.40;92.20
27978;DHT22;15314;49.248;6.968;2024-03-29T01:43:33;10.50;92.40
27978;DHT22;15314;49.248;6.968;2024-03-29T01:44:34;10.60;92.30
27978;DHT22;15314;49.248;6.968;2024-03-29T01:45:38;10.60;91.80
27978;DHT22;15314;49.248;6.968;2024-03-29T01:46:39;10.60;91.70
27978;DHT22;15314;49.248;6.968;2024-03-29T01:47:40;10.60;91.30
27978;DHT22;15314;49.248;6.968;2024-03-29T01:48:41;10.70;91.10
27978;DHT22;15314;49.248;6.968;2024-03-29T01:49:41;10.70;90.90
27978;DHT22;15314;49.248;6.968;2024-03-29T01:50:42;10.60;90.70
27978;DHT22;15314;49.248;6.968;2024-03-29T01:51:43;10.50;90.80
27978;DHT22;15314;49.248;6.968;2024-03-29T01:52:45;10.50;91.00
27978;DHT22;15314;49.248;6.968;2024-03-29T01:53:47;10.50;90.90
27978;DHT22;15314;49.248;6.968;2024-03-29T01:54:48;10.50;90.90
27978;DHT22;15314;49.248;6.968;2024-03-29T01:55:50;10.50;90.80
27978;DHT22;15314;49.248;6.968;2024-03-29T01:56:50;10.60;90.80
27978;DHT22;15314;49.248;6.968;2024-03-29T01:57:52;10.60;90.70
27978;DHT22;15314;49.248;6.968;2024-03-29T01:58:55;10.60;90.70
27978;DHT22;15314;49.248;6.968;2024-03-29T01:59:57;10.70;90.70
27978;DHT22;15314;49.248;6.968;2024-03-29T02:01:00;10.70;90.70
27978;DHT22;15314;49.248;6.968;2024-03-29T02:02:03;10.70;90.70
27978;DHT22;15314;49.248;6.968;2024-03-29T02:03:04;10.70;90.60
27978;DHT22;15314;49.248;6.968;2024-03-29T02:04:10;10.80;90.70
27978;DHT22;15314;49.248;6.968;2024-03-29T02:05:12;10.90;90.80
27978;DHT22;15314;49.248;6.968;2024-03-29T02:06:13;10.80;90.90
27978;DHT22;15314;49.248;6.968;2024-03-29T02:07:14;11.00;90.70
27978;DHT22;15314;49.248;6.968;2024-03-29T02:08:15;10.90;90.60
27978;DHT22;15314;49.248;6.968;2024-03-29T02:09:16;11.00;90.70
27978;DHT22;15314;49.248;6.968;2024-03-29T02:10:17;11.00;90.60
27978;DHT22;15314;49.248;6.968;2024-03-29T02:11:18;11.00;90.70
27978;DHT22;15314;49.248;6.968;2024-03-29T02:12:18;11.00;90.80
27978;DHT22;15314;49.248;6.968;2024-03-29T02:13:19;11.00;90.70
27978;DHT22;15314;49.248;6.968;2024-03-29T02:14:20;11.00;91.00
27978;DHT22;15314;49.248;6.968;2024-03-29T02:15:20;11.00;91.10
27978;DHT22;15314;49.248;6.968;2024-03-29T02:16:21;11.00;91.30
27978;DHT22;15314;49.248;6.968;2024-03-29T02:17:22;10.90;91.30
27978;DHT22;15314;49.248;6.968;2024-03-29T02:18:22;11.00;91.30
27978;DHT22;15314;49.248;6.968;2024-03-29T02:19:23;10.90;91.50
27978;DHT22;15314;49.248;6.968;2024-03-29T02:20:24;11.10;91.50
27978;DHT22;15314;49.248;6.968;2024-03-29T02:21:26;10.90;91.60
27978;DHT22;15314;49.248;6.968;2024-03-29T02:22:27;10.90;91.70
27978;DHT22;15314;49.248;6.968;2024-03-29T02:23:32;10.90;91.60
27978;DHT22;15314;49.248;6.968;2024-03-29T02:24:33;10.90;91.80
27978;DHT22;15314;49.248;6.968;2024-03-29T02:25:35;10.90;91.80
27978;DHT22;15314;49.248;6.968;2024-03-29T02:26:36;10.90;91.80
27978;DHT22;15314;49.248;6.968;2024-03-29T02:27:42;10.90;91.80
27978;DHT22;15314;49.248;6.968;2024-03-29T02:28:43;10.90;91.90
27978;DHT22;15314;49.248;6.968;2024-03-29T02:29:43;10.90;91.80
27978;DHT22;15314;49.248;6.968;2024-03-29T02:30:44;11.00;91.90
27978;DHT22;15314;49.248;6.968;2024-03-29T02:31:45;11.00;92.00
27978;DHT22;15314;49.248;6.968;2024-03-29T02:32:46;11.00;92.20
27978;DHT22;15314;49.248;6.968;2024-03-29T02:33:47;10.90;92.30
27978;DHT22;15314;49.248;6.968;2024-03-29T02:34:47;11.00;92.70
27978;DHT22;15314;49.248;6.968;2024-03-29T02:35:48;10.90;92.60
27978;DHT22;15314;49.248;6.968;2024-03-29T02:36:49;10.80;92.70
27978;DHT22;15314;49.248;6.968;2024-03-29T02:37:50;10.90;92.70
27978;DHT22;15314;49.248;6.968;2024-03-29T02:38:51;10.80;92.80
27978;DHT22;15314;49.248;6.968;2024-03-29T02:39:52;10.90;92.80
27978;DHT22;15314;49.248;6.968;2024-03-29T02:40:52;10.80;92.70
27978;DHT22;15314;49.248;6.968;2024-03-29T02:41:53;10.80;92.90
27978;DHT22;15314;49.248;6.968;2024-03-29T02:42:53;11.00;93.10
27978;DHT22;15314;49.248;6.968;2024-03-29T02:43:54;10.90;93.10
27978;DHT22;15314;49.248;6.968;2024-03-29T02:44:55;10.90;93.00
27978;DHT22;15314;49.248;6.968;2024-03-29T02:45:58;10.90;93.10
27978;DHT22;15314;49.248;6.968;2024-03-29T02:46:59;10.80;93.10
27978;DHT22;15314;49.248;6.968;2024-03-29T02:47:59;10.80;93.00
27978;DHT22;15314;49.248;6.968;2024-03-29T02:49:00;10.70;93.10
27978;DHT22;15314;49.248;6.968;2024-03-29T02:50:01;10.70;93.00
27978;DHT22;15314;49.248;6.968;2024-03-29T02:51:01;10.80;93.30
27978;DHT22;15314;49.248;6.968;2024-03-29T02:52:02;10.70;93.30
27978;DHT22;15314;49.248;6.968;2024-03-29T02:53:03;10.80;93.10
27978;DHT22;15314;49.248;6.968;2024-03-29T02:54:03;10.80;93.20
27978;DHT22;15314;49.248;6.968;2024-03-29T02:55:04;10.80;93.00
27978;DHT22;15314;49.248;6.968;2024-03-29T02:56:05;10.80;93.10
27978;DHT22;15314;49.248;6.968;2024-03-29T02:57:07;10.70;93.20
27978;DHT22;15314;49.248;6.968;2024-03-29T02:58:08;10.80;93.20
27978;DHT22;15314;49.248;6.968;2024-03-29T02:59:09;10.80;93.10
27978;DHT22;15314;49.248;6.968;2024-03-29T03:00:10;10.80;93.00
27978;DHT22;15314;49.248;6.968;2024-03-29T03:01:10;10.80;93.30
27978;DHT22;15314;49.248;6.968;2024-03-29T03:02:11;10.80;93.20
27978;DHT22;15314;49.248;6.968;2024-03-29T03:03:15;10.90;93.10
27978;DHT22;15314;49.248;6.968;2024-03-29T03:04:16;10.90;93.20
27978;DHT22;15314;49.248;6.968;2024-03-29T03:05:16;10.80;93.30
27978;DHT22;15314;49.248;6.968;2024-03-29T03:06:17;10.80;93.60
27978;DHT22;15314;49.248;6.968;2024-03-29T03:07:18;10.80;93.80
27978;DHT22;15314;49.248;6.968;2024-03-29T03:08:37;10.70;94.10
27978;DHT22;15314;49.248;6.968;2024-03-29T03:09:57;10.70;94.60
27978;DHT22;15314;49.248;6.968;2024-03-29T03:11:17;10.60;94.80
27978;DHT22;15314;49.248;6.968;2024-03-29T03:12:17;10.60;95.30
27978;DHT22;15314;49.248;6.968;2024-03-29T03:13:18;10.50;95.50
27978;DHT22;15314;49.248;6.968;2024-03-29T03:14:19;10.40;96.10
27978;DHT22;15314;49.248;6.968;2024-03-29T03:15:19;10.40;96.40
27978;DHT22;15314;49.248;6.968;2024-03-29T03:16:20;10.30;96.80
27978;DHT22;15314;49.248;6.968;2024-03-29T03:17:20;10.30;97.20
27978;DHT22;15314;49.248;6.968;2024-03-29T03:18:21;10.20;97.30
27978;DHT22;15314;49.248;6.968;2024-03-29T03:19:22;10.30;97.80
27978;DHT22;15314;49.248;6.968;2024-03-29T03:20:23;10.20;98.00
27978;DHT22;15314;49.248;6.968;2024-03-29T03:21:28;10.20;98.30
27978;DHT22;15314;49.248;6.968;2024-03-29T03:22:29;10.10;98.30
27978;DHT22;15314;49.248;6.968;2024-03-29T03:23:29;10.10;98.70
27978;DHT22;15314;49.248;6.968;2024-03-29T03:24:30;10.20;99.30
27978;DHT22;15314;49.248;6.968;2024-03-29T03:25:31;10.20;99.40
27978;DHT22;15314;49.248;6.968;2024-03-29T03:26:31;10.20;99.30
27978;DHT22;15314;49.248;6.968;2024-03-29T03:27:32;10.40;99.50
27978;DHT22;15314;49.248;6.968;2024-03-29T03:28:33;10.30;99.90
27978;DHT22;15314;49.248;6.968;2024-03-29T03:29:33;10.30;99.40
27978;DHT22;15314;49.248;6.968;2024-03-29T03:30:38;10.30;99.50
27978;DHT22;15314;49.248;6.968;2024-03-29T03:31:39;10.30;99.50
27978;DHT22;15314;49.248;6.968;2024-03-29T03:32:40;10.30;99.40
27978;DHT22;15314;49.248;6.968;2024-03-29T03:33:40;10.30;99.70
27978;DHT22;15314;49.248;6.968;2024-03-29T03:34:41;10.30;99.80
27978;DHT22;15314;49.248;6.968;2024-03-29T03:35:42;10.30;99.70
27978;DHT22;15314;49.248;6.968;2024-03-29T03:36:43;10.20;99.60
27978;DHT22;15314;49.248;6.968;2024-03-29T03:37:44;10.20;99.80
27978;DHT22;15314;49.248;6.968;2024-03-29T03:38:44;10.20;99.60
27978;DHT22;15314;49.248;6.968;2024-03-29T03:39:45;10.30;99.90
27978;DHT22;15314;49.248;6.968;2024-03-29T03:40:46;10.20;99.80
27978;DHT22;15314;49.248;6.968;2024-03-29T03:41:46;10.30;99.90
27978;DHT22;15314;49.248;6.968;2024-03-29T03:42:47;10.20;99.60
27978;DHT22;15314;49.248;6.968;2024-03-29T03:43:48;10.20;99.90
27978;DHT22;15314;49.248;6.968;2024-03-29T03:44:48;10.10;99.90
27978;DHT22;15314;49.248;6.968;2024-03-29T03:45:49;10.20;99.90
27978;DHT22;15314;49.248;6.968;2024-03-29T03:46:50;10.20;99.90
27978;DHT22;15314;49.248;6.968;2024-03-29T03:47:50;10.10;99.90
27978;DHT22;15314;49.248;6.968;2024-03-29T03:48:51;10.10;99.90
27978;DHT22;15314;49.248;6.968;2024-03-29T03:49:52;10.20;99.90
27978;DHT22;15314;49.248;6.968;2024-03-29T03:50:52;10.20;99.90
27978;DHT22;15314;49.248;6.968;2024-03-29T03:51:53;10.20;99.90
27978;DHT22;15314;49.248;6.968;2024-03-29T03:52:53;10.30;99.90
27978;DHT22;15314;49.248;6.968;2024-03-29T03:53:54;10.10;99.90
27978;DHT22;15314;49.248;6.968;2024-03-29T03:54:55;10.10;99.90
27978;DHT22;15314;49.248;6.968;2024-03-29T03:55:55;10.10;99.90
27978;DHT22;15314;49.248;6.968;2024-03-29T03:56:56;10.10;99.90
27978;DHT22;15314;49.248;6.968;2024-03-29T03:57:56;10.10;99.90
27978;DHT22;15314;49.248;6.968;2024-03-29T03:58:57;10.20;99.90
27978;DHT22;15314;49.248;6.968;2024-03-29T03:59:58;10.20;99.90
27978;DHT22;15314;49.248;6.968;2024-03-29T04:01:04;10.20;99.90
27978;DHT22;15314;49.248;6.968;2024-03-29T04:02:05;10.20;99.90
27978;DHT22;15314;49.248;6.968;2024-03-29T04:03:05;10.20;99.90
27978;DHT22;15314;49.248;6.968;2024-03-29T04:04:06;10.50;99.90
27978;DHT22;15314;49.248;6.968;2024-03-29T04:05:07;10.30;99.90
27978;DHT22;15314;49.248;6.968;2024-03-29T04:06:08;10.30;99.90
27978;DHT22;15314;49.248;6.968;2024-03-29T04:07:08;10.40;99.90
27978;DHT22;15314;49.248;6.968;2024-03-29T04:08:09;10.30;99.90
27978;DHT22;15314;49.248;6.968;2024-03-29T04:09:10;10.30;99.90
27978;DHT22;15314;49.248;6.968;2024-03-29T04:10:11;10.40;99.90
27978;DHT22;15314;49.248;6.968;2024-03-29T04:11:12;10.40;99.90
27978;DHT22;15314;49.248;6.968;2024-03-29T04:12:12;10.40;99.90
27978;DHT22;15314;49.248;6.968;2024-03-29T04:13:13;10.40;99.90
27978;DHT22;15314;49.248;6.968;2024-03-29T04:14:14;10.40;99.90
27978;DHT22;15314;49.248;6.968;2024-03-29T04:15:15;10.50;99.90
27978;DHT22;15314;49.248;6.968;2024-03-29T04:16:15;10.50;99.90
27978;DHT22;15314;49.248;6.968;2024-03-29T04:17:16;10.50;99.90
27978;DHT22;15314;49.248;6.968;2024-03-29T04:18:16;10.50;99.90
27978;DHT22;15314;49.248;6.968;2024-03-29T04:19:17;10.50;99.90
27978;DHT22;15314;49.248;6.968;2024-03-29T04:20:18;10.50;99.90
27978;DHT22;15314;49.248;6.968;2024-03-29T04:21:18;10.50;99.90
27978;DHT22;15314;49.248;6.968;2024-03-29T04:22:19;10.60;99.90
27978;DHT22;15314;49.248;6.968;2024-03-29T04:23:19;10.40;99.90
27978;DHT22;15314;49.248;6.968;2024-03-29T04:24:20;10.40;99.90
27978;DHT22;15314;49.248;6.968;2024-03-29T04:25:21;10.50;99.90
27978;DHT22;15314;49.248;6.968;2024-03-29T04:26:22;10.40;99.90
27978;DHT22;15314;49.248;6.968;2024-03-29T04:27:23;10.50;99.90
27978;DHT22;15314;49.248;6.968;2024-03-29T04:28:24;10.50;99.90
27978;DHT22;15314;49.248;6.968;2024-03-29T04:29:24;10.50;99.90
27978;DHT22;15314;49.248;6.968;2024-03-29T04:30:25;10.50;99.90
27978;DHT22;15314;49.248;6.968;2024-03-29T04:31:25;10.50;99.90
27978;DHT22;15314;49.248;6.968;2024-03-29T04:32:26;10.50;99.90
27978;DHT22;15314;49.248;6.968;2024-03-29T04:33:27;10.60;99.90
27978;DHT22;15314;49.248;6.968;2024-03-29T04:34:28;10.50;99.90
27978;DHT22;15314;49.248;6.968;2024-03-29T04:35:28;10.50;99.90
27978;DHT22;15314;49.248;6.968;2024-03-29T04:36:29;10.40;99.90
27978;DHT22;15314;49.248;6.968;2024-03-29T04:37:29;10.60;99.90
27978;DHT22;15314;49.248;6.968;2024-03-29T04:38:31;10.50;99.90
27978;DHT22;15314;49.248;6.968;2024-03-29T04:39:31;10.40;99.90
27978;DHT22;15314;49.248;6.968;2024-03-29T04:40:32;10.30;99.90
27978;DHT22;15314;49.248;6.968;2024-03-29T04:41:33;10.30;99.90
27978;DHT22;15314;49.248;6.968;2024-03-29T04:42:35;10.20;99.90
27978;DHT22;15314;49.248;6.968;2024-03-29T04:43:35;10.30;99.90
27978;DHT22;15314;49.248;6.968;2024-03-29T04:44:36;10.20;99.90
27978;DHT22;15314;49.248;6.968;2024-03-29T04:45:36;10.20;99.90
27978;DHT22;15314;49.248;6.968;2024-03-29T04:46:37;10.20;99.90
27978;DHT22;15314;49.248;6.968;2024-03-29T04:47:37;10.10;99.90
27978;DHT22;15314;49.248;6.968;2024-03-29T04:48:39;10.30;99.90
27978;DHT22;15314;49.248;6.968;2024-03-29T04:49:41;10.00;99.90
27978;DHT22;15314;49.248;6.968;2024-03-29T04:50:42;10.10;99.90
27978;DHT22;15314;49.248;6.968;2024-03-29T04:51:43;9.90;99.90
27978;DHT22;15314;49.248;6.968;2024-03-29T04:52:43;10.00;99.90
27978;DHT22;15314;49.248;6.968;2024-03-29T04:53:44;10.00;99.90
27978;DHT22;15314;49.248;6.968;2024-03-29T04:54:45;9.90;99.90
27978;DHT22;15314;49.248;6.968;2024-03-29T04:55:45;9.90;99.90
27978;DHT22;15314;49.248;6.968;2024-03-29T04:56:48;10.00;99.90
27978;DHT22;15314;49.248;6.968;2024-03-29T04:57:49;10.00;99.90
27978;DHT22;15314;49.248;6.968;2024-03-29T04:58:49;10.00;99.90
27978;DHT22;15314;49.248;6.968;2024-03-29T04:59:50;10.00;99.90
27978;DHT22;15314;49.248;6.968;2024-03-29T05:00:52;10.10;99.90
27978;DHT22;15314;49.248;6.968;2024-03-29T05:01:52;10.10;99.90
27978;DHT22;15314;49.248;6.968;2024-03-29T05:02:55;10.10;99.90
27978;DHT22;15314;49.248;6.968;2024-03-29T05:03:56;10.00;99.90
27978;DHT22;15314;49.248;6.968;2024-03-29T05:04:57;10.00;99.90
27978;DHT22;15314;49.248;6.968;2024-03-29T05:05:58;10.10;99.90
27978;DHT22;15314;49.248;6.968;2024-03-29T05:06:59;10.00;99.90
27978;DHT22;15314;49.248;6.968;2024-03-29T05:08:00;10.00;99.90
27978;DHT22;15314;49.248;6.968;2024-03-29T05:09:00;10.10;99.90
27978;DHT22;15314;49.248;6.968;2024-03-29T05:10:01;10.00;99.90
27978;DHT22;15314;49.248;6.968;2024-03-29T05:11:04;10.10;99.90
27978;DHT22;15314;49.248;6.968;2024-03-29T05:12:06;10.30;99.90
27978;DHT22;15314;49.248;6.968;2024-03-29T05:13:07;10.20;99.90
27978;DHT22;15314;49.248;6.968;2024-03-29T05:14:07;10.20;99.90
27978;DHT22;15314;49.248;6.968;2024-03-29T05:15:08;10.20;99.90
27978;DHT22;15314;49.248;6.968;2024-03-29T05:16:09;10.20;99.90
27978;DHT22;15314;49.248;6.968;2024-03-29T05:17:10;10.20;99.90
27978;DHT22;15314;49.248;6.968;2024-03-29T05:18:10;10.20;99.90
27978;DHT22;15314;49.248;6.968;2024-03-29T05:19:16;10.30;99.90
27978;DHT22;15314;49.248;6.968;2024-03-29T05:20:16;10.30;99.90
27978;DHT22;15314;49.248;6.968;2024-03-29T05:21:17;10.30;99.90
27978;DHT22;15314;49.248;6.968;2024-03-29T05:22:18;10.30;99.90
27978;DHT22;15314;49.248;6.968;2024-03-29T05:23:18;10.30;99.90
27978;DHT22;15314;49.248;6.968;2024-03-29T05:24:19;10.30;99.90
27978;DHT22;15314;49.248;6.968;2024-03-29T05:25:20;10.30;99.90
27978;DHT22;15314;49.248;6.968;2024-03-29T05:26:20;10.40;99.90
27978;DHT22;15314;49.248;6.968;2024-03-29T05:27:21;10.30;99.90
27978;DHT22;15314;49.248;6.968;2024-03-29T05:28:21;10.30;99.90
27978;DHT22;15314;49.248;6.968;2024-03-29T05:29:22;10.30;99.90
27978;DHT22;15314;49.248;6.968;2024-03-29T05:30:23;10.20;99.90
27978;DHT22;15314;49.248;6.968;2024-03-29T05:31:25;10.20;99.90
27978;DHT22;15314;49.248;6.968;2024-03-29T05:32:25;10.30;99.90
27978;DHT22;15314;49.248;6.968;2024-03-29T05:33:26;10.40;99.90
27978;DHT22;15314;49.248;6.968;2024-03-29T05:34:27;10.50;99.90
27978;DHT22;15314;49.248;6.968;2024-03-29T05:35:27;10.40;99.90
27978;DHT22;15314;49.248;6.968;2024-03-29T05:36:28;10.50;99.90
27978;DHT22;15314;49.248;6.968;2024-03-29T05:37:28;10.40;99.90
27978;DHT22;15314;49.248;6.968;2024-03-29T05:38:29;10.30;99.90
27978;DHT22;15314;49.248;6.968;2024-03-29T05:39:30;10.30;99.90
27978;DHT22;15314;49.248;6.968;2024-03-29T05:40:31;10.30;99.90
27978;DHT22;15314;49.248;6.968;2024-03-29T05:41:31;10.40;99.90
27978;DHT22;15314;49.248;6.968;2024-03-29T05:42:32;10.40;99.90
27978;DHT22;15314;49.248;6.968;2024-03-29T05:43:34;10.30;99.90
27978;DHT22;15314;49.248;6.968;2024-03-29T05:44:37;10.40;99.90
27978;DHT22;15314;49.248;6.968;2024-03-29T05:45:38;10.60;99.90
27978;DHT22;15314;49.248;6.968;2024-03-29T05:46:38;10.60;99.90
27978;DHT22;15314;49.248;6.968;2024-03-29T05:47:40;10.50;99.90
27978;DHT22;15314;49.248;6.968;2024-03-29T05:48:41;10.50;99.90
27978;DHT22;15314;49.248;6.968;2024-03-29T05:49:41;10.50;99.90
27978;DHT22;15314;49.248;6.968;2024-03-29T05:50:42;10.50;99.90
27978;DHT22;15314;49.248;6.968;2024-03-29T05:51:43;10.40;99.90
27978;DHT22;15314;49.248;6.968;2024-03-29T05:52:44;10.50;99.90
27978;DHT22;15314;49.248;6.968;2024-03-29T05:53:44;10.50;99.90
27978;DHT22;15314;49.248;6.968;2024-03-29T05:54:45;10.50;99.90
27978;DHT22;15314;49.248;6.968;2024-03-29T05:55:46;10.50;99.90
27978;DHT22;15314;49.248;6.968;2024-03-29T05:56:47;10.50;99.90
27978;DHT22;15314;49.248;6.968;2024-03-29T05:57:47;10.50;99.90
27978;DHT22;15314;49.248;6.968;2024-03-29T05:58:48;10.60;99.90
27978;DHT22;15314;49.248;6.968;2024-03-29T05:59:49;10.50;99.90
27978;DHT22;15314;49.248;6.968;2024-03-29T06:00:50;10.50;99.90
27978;DHT22;15314;49.248;6.968;2024-03-29T06:01:50;10.50;99.90
27978;DHT22;15314;49.248;6.968;2024-03-29T06:02:51;10.50;99.90
27978;DHT22;15314;49.248;6.968;2024-03-29T06:03:52;10.40;99.90
27978;DHT22;15314;49.248;6.968;2024-03-29T06:04:54;10.40;99.90
27978;DHT22;15314;49.248;6.968;2024-03-29T06:05:57;10.40;99.90
27978;DHT22;15314;49.248;6.968;2024-03-29T06:07:00;10.40;99.90
27978;DHT22;15314;49.248;6.968;2024-03-29T06:08:01;10.50;99.90
27978;DHT22;15314;49.248;6.968;2024-03-29T06:09:02;10.40;99.90
27978;DHT22;15314;49.248;6.968;2024-03-29T06:10:03;10.40;99.90
27978;DHT22;15314;49.248;6.968;2024-03-29T06:11:05;10.30;99.90
27978;DHT22;15314;49.248;6.968;2024-03-29T06:12:06;10.20;99.90
27978;DHT22;15314;49.248;6.968;2024-03-29T06:13:08;10.20;99.90
27978;DHT22;15314;49.248;6.968;2024-03-29T06:14:18;10.10;99.90
27978;DHT22;15314;49.248;6.968;2024-03-29T06:15:37;10.10;99.90
27978;DHT22;15314;49.248;6.968;2024-03-29T06:16:56;10.00;99.90
27978;DHT22;15314;49.248;6.968;2024-03-29T06:18:15;10.10;99.90
27978;DHT22;15314;49.248;6.968;2024-03-29T06:19:16;10.00;99.90
27978;DHT22;15314;49.248;6.968;2024-03-29T06:20:17;10.00;99.90
27978;DHT22;15314;49.248;6.968;2024-03-29T06:21:18;9.90;99.90
27978;DHT22;15314;49.248;6.968;2024-03-29T06:22:19;9.80;99.90
27978;DHT22;15314;49.248;6.968;2024-03-29T06:23:20;9.80;99.90
27978;DHT22;15314;49.248;6.968;2024-03-29T06:24:20;9.70;99.90
27978;DHT22;15314;49.248;6.968;2024-03-29T06:25:21;9.80;99.90
27978;DHT22;15314;49.248;6.968;2024-03-29T06:26:21;9.80;99.90
27978;DHT22;15314;49.248;6.968;2024-03-29T06:27:22;9.80;99.90